createdAt,value
2024-01-06T00:00:14.687Z,99.99
2024-01-06T00:01:14.702Z,99.99
2024-01-06T00:02:14.672Z,99.99
2024-01-06T00:03:14.720Z,99.99
2024-01-06T00:04:14.737Z,99.99
2024-01-06T00:05:14.703Z,99.99
2024-01-06T00:06:14.734Z,99.99
2024-01-06T00:07:14.703Z,99.99
2024-01-06T00:08:14.696Z,99.99
2024-01-06T00:09:14.702Z,99.99
2024-01-06T00:10:17.381Z,99.99
2024-01-06T00:11:14.698Z,99.99
2024-01-06T00:12:14.733Z,99.99
2024-01-06T00:13:14.702Z,99.99
2024-01-06T00:14:14.710Z,99.99
2024-01-06T00:15:14.787Z,99.99
2024-01-06T00:16:14.720Z,99.99
2024-01-06T00:17:14.727Z,99.99
2024-01-06T00:18:14.896Z,99.99
2024-01-06T00:19:14.817Z,99.99
2024-01-06T00:20:14.803Z,99.99
2024-01-06T00:21:14.758Z,99.99
2024-01-06T00:22:14.776Z,99.99
2024-01-06T00:23:14.765Z,99.99
2024-01-06T00:24:14.773Z,99.99
2024-01-06T00:25:14.756Z,99.99
2024-01-06T00:26:14.764Z,99.99
2024-01-06T00:27:14.923Z,99.99
2024-01-06T00:28:14.771Z,99.99
2024-01-06T00:29:14.768Z,99.99
2024-01-06T00:30:14.892Z,99.99
2024-01-06T00:31:14.869Z,99.99
2024-01-06T00:32:14.779Z,99.99
2024-01-06T00:33:14.841Z,99.99
2024-01-06T00:34:14.833Z,99.99
2024-01-06T00:35:14.789Z,99.99
2024-01-06T00:36:14.820Z,99.99
2024-01-06T00:37:14.806Z,99.99
2024-01-06T00:38:14.804Z,99.99
2024-01-06T00:39:14.839Z,99.99
2024-01-06T00:40:14.809Z,99.99
2024-01-06T00:41:14.847Z,99.99
2024-01-06T00:42:14.885Z,99.99
2024-01-06T00:43:14.836Z,99.99
2024-01-06T00:44:14.823Z,99.99
2024-01-06T00:45:14.877Z,99.99
2024-01-06T00:46:14.836Z,99.99
2024-01-06T00:47:14.837Z,99.99
2024-01-06T00:48:15.078Z,99.99
2024-01-06T00:49:14.888Z,99.99
2024-01-06T00:50:14.845Z,99.99
2024-01-06T00:51:14.867Z,99.99
2024-01-06T00:52:14.871Z,99.99
2024-01-06T00:53:14.877Z,99.99
2024-01-06T00:54:14.911Z,99.99
2024-01-06T00:55:14.911Z,99.99
2024-01-06T00:56:14.870Z,99.99
2024-01-06T00:57:14.896Z,99.99
2024-01-06T00:58:14.881Z,99.99
2024-01-06T00:59:14.892Z,99.99
2024-01-06T01:00:14.930Z,99.99
2024-01-06T01:01:15.026Z,99.99
2024-01-06T01:02:14.900Z,99.99
2024-01-06T01:03:15.047Z,99.99
2024-01-06T01:04:15.118Z,99.99
2024-01-06T01:05:14.939Z,99.99
2024-01-06T01:06:14.957Z,99.99
2024-01-06T01:07:14.918Z,99.99
2024-01-06T01:08:14.932Z,99.99
2024-01-06T01:09:14.953Z,99.99
2024-01-06T01:10:14.934Z,99.99
2024-01-06T01:11:14.959Z,99.99
2024-01-06T01:12:14.976Z,99.99
2024-01-06T01:13:14.936Z,99.99
2024-01-06T01:14:14.944Z,99.99
2024-01-06T01:15:15.038Z,99.99
2024-01-06T01:16:14.952Z,99.99
2024-01-06T01:17:14.953Z,99.99
2024-01-06T01:18:15.206Z,99.99
2024-01-06T01:19:15.075Z,99.99
2024-01-06T01:20:14.966Z,99.99
2024-01-06T01:21:15.046Z,99.99
2024-01-06T01:22:14.991Z,99.99
2024-01-06T01:23:14.975Z,99.99
2024-01-06T01:24:14.999Z,99.99
2024-01-06T01:25:14.991Z,99.99
2024-01-06T01:26:14.988Z,99.99
2024-01-06T01:27:15.065Z,99.99
2024-01-06T01:28:15.002Z,99.99
2024-01-06T01:29:15.015Z,99.99
2024-01-06T01:30:15.186Z,99.99
2024-01-06T01:31:15.130Z,99.99
2024-01-06T01:32:15.184Z,99.99
2024-01-06T01:33:15.118Z,99.99
2024-01-06T01:34:15.478Z,99.99
2024-01-06T01:35:15.026Z,99.99
2024-01-06T01:36:15.054Z,99.99
2024-01-06T01:37:15.035Z,99.99
2024-01-06T01:38:15.041Z,99.99
2024-01-06T01:39:15.074Z,99.99
2024-01-06T01:40:15.058Z,99.99
2024-01-06T01:41:15.086Z,99.99
2024-01-06T01:42:15.094Z,99.99
2024-01-06T01:43:15.077Z,99.99
2024-01-06T01:44:15.060Z,99.99
2024-01-06T01:45:15.234Z,99.99
2024-01-06T01:46:15.084Z,99.99
2024-01-06T01:47:15.088Z,99.99
2024-01-06T01:48:15.315Z,99.99
2024-01-06T01:49:15.265Z,99.99
2024-01-06T01:50:15.090Z,99.99
2024-01-06T01:51:15.106Z,99.99
2024-01-06T01:52:15.102Z,99.99
2024-01-06T01:53:15.099Z,99.99
2024-01-06T01:54:15.130Z,99.99
2024-01-06T01:55:15.132Z,99.99
2024-01-06T01:56:15.148Z,99.99
2024-01-06T01:57:15.177Z,99.99
2024-01-06T01:58:15.119Z,99.99
2024-01-06T01:59:15.159Z,99.99
2024-01-06T02:00:15.202Z,99.99
2024-01-06T02:01:15.267Z,99.99
2024-01-06T02:02:15.140Z,99.99
2024-01-06T02:03:15.281Z,99.99
2024-01-06T02:04:15.211Z,99.99
2024-01-06T02:05:15.224Z,99.99
2024-01-06T02:06:15.231Z,99.99
2024-01-06T02:07:15.171Z,99.99
2024-01-06T02:08:15.163Z,99.99
2024-01-06T02:09:15.240Z,99.99
2024-01-06T02:10:15.176Z,99.99
2024-01-06T02:11:15.169Z,99.99
2024-01-06T02:12:15.227Z,99.99
2024-01-06T02:13:15.181Z,99.99
2024-01-06T02:14:15.193Z,99.99
2024-01-06T02:15:15.246Z,99.99
2024-01-06T02:16:15.194Z,99.99
2024-01-06T02:17:15.203Z,99.99
2024-01-06T02:18:15.354Z,99.99
2024-01-06T02:19:15.332Z,99.99
2024-01-06T02:20:15.217Z,99.99
2024-01-06T02:21:15.265Z,99.99
2024-01-06T02:22:15.225Z,99.99
2024-01-06T02:23:15.222Z,99.99
2024-01-06T02:24:15.263Z,99.99
2024-01-06T02:25:15.237Z,99.99
2024-01-06T02:26:15.236Z,99.99
2024-01-06T02:27:15.247Z,99.99
2024-01-06T02:28:15.236Z,99.99
2024-01-06T02:29:15.251Z,99.99
2024-01-06T02:30:15.336Z,99.99
2024-01-06T02:31:15.368Z,99.99
2024-01-06T02:32:15.257Z,99.99
2024-01-06T02:33:15.446Z,99.99
2024-01-06T02:34:15.403Z,99.99
2024-01-06T02:35:15.265Z,99.99
2024-01-06T02:36:15.351Z,99.99
2024-01-06T02:37:15.290Z,99.99
2024-01-06T02:38:15.280Z,99.99
2024-01-06T02:39:15.308Z,99.99
2024-01-06T02:40:15.306Z,99.99
2024-01-06T02:41:15.289Z,99.99
2024-01-06T02:42:15.321Z,99.99
2024-01-06T02:43:15.294Z,99.99
2024-01-06T02:44:15.335Z,99.99
2024-01-06T02:45:15.349Z,99.99
2024-01-06T02:46:15.308Z,99.99
2024-01-06T02:47:15.374Z,99.99
2024-01-06T02:48:15.473Z,99.99
2024-01-06T02:49:15.472Z,99.99
2024-01-06T02:50:15.393Z,99.99
2024-01-06T02:51:15.413Z,99.99
2024-01-06T02:52:15.354Z,99.99
2024-01-06T02:53:15.375Z,99.99
2024-01-06T02:54:15.374Z,99.99
2024-01-06T02:55:15.357Z,99.99
2024-01-06T02:56:15.355Z,99.99
2024-01-06T02:57:15.377Z,99.99
2024-01-06T02:58:15.376Z,99.99
2024-01-06T02:59:15.364Z,99.99
2024-01-06T03:00:15.382Z,99.99
2024-01-06T03:01:15.473Z,99.99
2024-01-06T03:02:15.374Z,99.99
2024-01-06T03:03:15.443Z,99.99
2024-01-06T03:04:15.465Z,99.99
2024-01-06T03:05:15.395Z,99.99
2024-01-06T03:06:15.389Z,99.99
2024-01-06T03:07:15.396Z,99.99
2024-01-06T03:08:15.396Z,99.99
2024-01-06T03:09:15.429Z,99.99
2024-01-06T03:10:15.415Z,99.99
2024-01-06T03:11:15.411Z,99.99
2024-01-06T03:12:15.477Z,99.99
2024-01-06T03:13:15.422Z,99.99
2024-01-06T03:14:15.422Z,99.99
2024-01-06T03:15:15.455Z,99.99
2024-01-06T03:16:15.431Z,99.99
2024-01-06T03:17:15.436Z,99.99
2024-01-06T03:18:15.728Z,99.99
2024-01-06T03:19:15.700Z,99.99
2024-01-06T03:20:15.460Z,99.99
2024-01-06T03:21:15.470Z,99.99
2024-01-06T03:22:15.466Z,99.99
2024-01-06T03:23:15.472Z,99.99
2024-01-06T03:24:15.509Z,99.99
2024-01-06T03:25:15.490Z,99.99
2024-01-06T03:26:15.477Z,99.99
2024-01-06T03:27:15.522Z,99.99
2024-01-06T03:28:15.522Z,99.99
2024-01-06T03:29:15.516Z,99.99
2024-01-06T03:30:15.575Z,99.99
2024-01-06T03:31:15.620Z,99.99
2024-01-06T03:32:15.500Z,99.99
2024-01-06T03:33:15.617Z,99.99
2024-01-06T03:34:15.642Z,99.99
2024-01-06T03:35:15.539Z,99.99
2024-01-06T03:36:15.543Z,99.99
2024-01-06T03:37:15.531Z,99.99
2024-01-06T03:38:15.536Z,99.99
2024-01-06T03:39:15.555Z,99.99
2024-01-06T03:40:15.562Z,99.99
2024-01-06T03:41:15.542Z,99.99
2024-01-06T03:42:15.563Z,99.99
2024-01-06T03:43:15.543Z,99.99
2024-01-06T03:44:15.559Z,99.99
2024-01-06T03:45:15.569Z,99.99
2024-01-06T03:46:15.555Z,99.99
2024-01-06T03:47:15.560Z,99.99
2024-01-06T03:48:15.734Z,99.99
2024-01-06T03:49:15.637Z,99.99
2024-01-06T03:50:15.574Z,99.99
2024-01-06T03:51:15.729Z,99.99
2024-01-06T03:52:15.623Z,99.99
2024-01-06T03:53:15.589Z,99.99
2024-01-06T03:54:15.601Z,99.99
2024-01-06T03:55:15.587Z,99.99
2024-01-06T03:56:15.591Z,99.99
2024-01-06T03:57:15.653Z,99.99
2024-01-06T03:58:15.600Z,99.99
2024-01-06T03:59:15.621Z,99.99
2024-01-06T04:00:15.637Z,99.99
2024-01-06T04:01:15.724Z,99.99
2024-01-06T04:02:15.617Z,99.99
2024-01-06T04:03:15.734Z,99.99
2024-01-06T04:04:15.683Z,99.99
2024-01-06T04:05:15.666Z,99.99
2024-01-06T04:06:15.691Z,99.99
2024-01-06T04:07:15.683Z,99.99
2024-01-06T04:08:15.634Z,99.99
2024-01-06T04:09:18.603Z,99.99
2024-01-06T04:10:15.641Z,99.99
2024-01-06T04:11:15.657Z,99.99
2024-01-06T04:12:15.666Z,99.99
2024-01-06T04:13:15.652Z,99.99
2024-01-06T04:14:15.654Z,99.99
2024-01-06T04:15:15.688Z,99.99
2024-01-06T04:16:15.664Z,99.99
2024-01-06T04:17:15.672Z,99.99
2024-01-06T04:18:15.798Z,99.99
2024-01-06T04:19:15.740Z,99.99
2024-01-06T04:20:15.674Z,99.99
2024-01-06T04:21:15.725Z,99.99
2024-01-06T04:22:15.685Z,99.99
2024-01-06T04:23:15.706Z,99.99
2024-01-06T04:24:15.719Z,99.99
2024-01-06T04:25:15.717Z,99.99
2024-01-06T04:26:15.714Z,99.99
2024-01-06T04:27:15.754Z,99.99
2024-01-06T04:28:15.700Z,99.99
2024-01-06T04:29:15.708Z,99.99
2024-01-06T04:30:15.902Z,99.99
2024-01-06T04:31:15.788Z,99.99
2024-01-06T04:32:15.735Z,99.99
2024-01-06T04:33:15.880Z,99.99
2024-01-06T04:34:15.915Z,99.99
2024-01-06T04:35:15.725Z,99.99
2024-01-06T04:36:15.762Z,99.99
2024-01-06T04:37:15.741Z,99.99
2024-01-06T04:38:15.800Z,99.99
2024-01-06T04:39:15.796Z,99.99
2024-01-06T04:40:15.780Z,99.99
2024-01-06T04:41:15.749Z,99.99
2024-01-06T04:42:15.772Z,99.99
2024-01-06T04:43:15.762Z,99.99
2024-01-06T04:44:15.756Z,99.99
2024-01-06T04:45:15.794Z,99.99
2024-01-06T04:46:15.764Z,99.99
2024-01-06T04:47:15.768Z,99.99
2024-01-06T04:48:15.878Z,99.99
2024-01-06T04:49:15.951Z,99.99
2024-01-06T04:50:15.800Z,99.99
2024-01-06T04:51:15.813Z,99.99
2024-01-06T04:52:15.786Z,99.99
2024-01-06T04:53:15.794Z,99.99
2024-01-06T04:54:15.812Z,99.99
2024-01-06T04:55:15.813Z,99.99
2024-01-06T04:56:15.808Z,99.99
2024-01-06T04:57:15.846Z,99.99
2024-01-06T04:58:15.803Z,99.99
2024-01-06T04:59:15.847Z,99.99
2024-01-06T05:00:15.903Z,99.99
2024-01-06T05:01:15.978Z,99.99
2024-01-06T05:02:15.819Z,99.99
2024-01-06T05:03:15.876Z,99.99
2024-01-06T05:04:15.901Z,99.99
2024-01-06T05:05:15.864Z,99.99
2024-01-06T05:06:15.866Z,99.99
2024-01-06T05:07:15.837Z,99.99
2024-01-06T05:08:15.841Z,99.99
2024-01-06T05:09:15.877Z,99.99
2024-01-06T05:10:15.845Z,99.99
2024-01-06T05:11:15.886Z,99.99
2024-01-06T05:12:15.877Z,99.99
2024-01-06T05:13:15.866Z,99.99
2024-01-06T05:14:15.874Z,99.99
2024-01-06T05:15:15.916Z,99.99
2024-01-06T05:16:15.870Z,99.99
2024-01-06T05:17:15.908Z,99.99
2024-01-06T05:18:16.033Z,99.99
2024-01-06T05:19:16.093Z,99.99
2024-01-06T05:20:15.886Z,99.99
2024-01-06T05:21:15.919Z,99.99
2024-01-06T05:22:15.914Z,99.99
2024-01-06T05:23:15.911Z,99.99
2024-01-06T05:24:15.937Z,99.99
2024-01-06T05:25:15.918Z,99.99
2024-01-06T05:26:15.911Z,99.99
2024-01-06T05:27:15.961Z,99.99
2024-01-06T05:28:15.913Z,99.99
2024-01-06T05:29:15.927Z,99.99
2024-01-06T05:30:16.005Z,99.99
2024-01-06T05:31:16.044Z,99.99
2024-01-06T05:32:15.928Z,99.99
2024-01-06T05:33:16.014Z,99.99
2024-01-06T05:34:15.977Z,99.99
2024-01-06T05:35:15.975Z,99.99
2024-01-06T05:36:15.960Z,99.99
2024-01-06T05:37:15.954Z,99.99
2024-01-06T05:38:15.950Z,99.99
2024-01-06T05:39:16.013Z,99.99
2024-01-06T05:40:15.960Z,99.99
2024-01-06T05:41:15.988Z,99.99
2024-01-06T05:42:15.991Z,99.99
2024-01-06T05:43:15.990Z,99.99
2024-01-06T05:44:15.973Z,99.99
2024-01-06T05:45:16.002Z,99.99
2024-01-06T05:46:15.982Z,99.99
2024-01-06T05:47:15.997Z,99.99
2024-01-06T05:48:16.172Z,99.99
2024-01-06T05:49:16.063Z,99.99
2024-01-06T05:50:15.995Z,99.99
2024-01-06T05:51:16.031Z,99.99
2024-01-06T05:52:16.012Z,99.99
2024-01-06T05:53:16.008Z,99.99
2024-01-06T05:54:16.058Z,99.99
2024-01-06T05:55:16.013Z,99.99
2024-01-06T05:56:16.043Z,99.99
2024-01-06T05:57:16.044Z,99.99
2024-01-06T05:58:16.032Z,99.99
2024-01-06T05:59:16.055Z,99.99
2024-01-06T06:00:16.066Z,99.99
2024-01-06T06:01:16.120Z,99.99
2024-01-06T06:02:16.041Z,99.99
2024-01-06T06:03:16.091Z,99.99
2024-01-06T06:04:16.204Z,99.99
2024-01-06T06:05:16.072Z,99.99
2024-01-06T06:06:16.089Z,99.99
2024-01-06T06:07:16.065Z,99.99
2024-01-06T06:08:16.083Z,99.99
2024-01-06T06:09:16.086Z,99.99
2024-01-06T06:10:16.119Z,99.99
2024-01-06T06:11:16.071Z,99.99
2024-01-06T06:12:16.198Z,99.99
2024-01-06T06:13:16.072Z,99.99
2024-01-06T06:14:16.077Z,99.99
2024-01-06T06:15:16.156Z,99.99
2024-01-06T06:16:16.100Z,99.99
2024-01-06T06:17:16.121Z,99.99
2024-01-06T06:18:16.324Z,99.99
2024-01-06T06:19:16.194Z,99.99
2024-01-06T06:20:16.100Z,99.99
2024-01-06T06:21:16.152Z,99.99
2024-01-06T06:22:16.105Z,99.99
2024-01-06T06:23:16.109Z,99.99
2024-01-06T06:24:16.118Z,99.99
2024-01-06T06:25:16.127Z,99.99
2024-01-06T06:26:16.125Z,99.99
2024-01-06T06:27:16.145Z,99.99
2024-01-06T06:28:16.129Z,99.99
2024-01-06T06:29:16.139Z,99.99
2024-01-06T06:30:16.316Z,99.99
2024-01-06T06:31:16.249Z,99.99
2024-01-06T06:32:16.147Z,99.99
2024-01-06T06:33:16.265Z,99.99
2024-01-06T06:34:16.351Z,99.99
2024-01-06T06:35:16.148Z,99.99
2024-01-06T06:36:16.180Z,99.99
2024-01-06T06:37:16.158Z,99.99
2024-01-06T06:38:16.164Z,99.99
2024-01-06T06:39:16.233Z,99.99
2024-01-06T06:40:16.169Z,99.99
2024-01-06T06:41:16.174Z,99.99
2024-01-06T06:42:16.209Z,99.99
2024-01-06T06:43:18.393Z,99.99
2024-01-06T06:44:16.193Z,99.99
2024-01-06T06:45:16.220Z,99.99
2024-01-06T06:46:16.201Z,99.99
2024-01-06T06:47:16.219Z,99.99
2024-01-06T06:48:16.261Z,99.99
2024-01-06T06:49:16.292Z,99.99
2024-01-06T06:50:16.212Z,99.99
2024-01-06T06:51:16.222Z,99.99
2024-01-06T06:52:16.213Z,99.99
2024-01-06T06:53:16.228Z,99.99
2024-01-06T06:54:16.237Z,99.99
2024-01-06T06:55:16.245Z,99.99
2024-01-06T06:56:16.234Z,99.99
2024-01-06T06:57:16.269Z,99.99
2024-01-06T06:58:16.238Z,99.99
2024-01-06T06:59:16.238Z,99.99
2024-01-06T07:00:16.301Z,99.99
2024-01-06T07:01:16.412Z,99.99
2024-01-06T07:02:16.259Z,99.99
2024-01-06T07:03:16.404Z,99.99
2024-01-06T07:04:16.335Z,99.99
2024-01-06T07:05:16.308Z,99.99
2024-01-06T07:06:16.342Z,99.99
2024-01-06T07:07:16.261Z,99.99
2024-01-06T07:08:16.304Z,99.99
2024-01-06T07:09:16.300Z,99.99
2024-01-06T07:10:16.282Z,99.99
2024-01-06T07:11:16.401Z,99.99
2024-01-06T07:12:16.296Z,99.99
2024-01-06T07:13:16.286Z,99.99
2024-01-06T07:14:16.289Z,99.99
2024-01-06T07:15:16.310Z,99.99
2024-01-06T07:16:19.319Z,99.99
2024-01-06T07:17:16.293Z,99.99
2024-01-06T07:18:16.451Z,99.99
2024-01-06T07:19:16.451Z,99.99
2024-01-06T07:20:16.307Z,99.99
2024-01-06T07:21:16.391Z,99.99
2024-01-06T07:22:16.313Z,99.99
2024-01-06T07:23:16.335Z,99.99
2024-01-06T07:24:16.344Z,99.99
2024-01-06T07:25:16.328Z,99.99
2024-01-06T07:26:16.328Z,99.99
2024-01-06T07:27:16.357Z,99.99
2024-01-06T07:28:16.346Z,99.99
2024-01-06T07:29:16.355Z,99.99
2024-01-06T07:30:16.497Z,99.99
2024-01-06T07:31:16.421Z,99.99
2024-01-06T07:32:16.348Z,99.99
2024-01-06T07:33:16.452Z,99.99
2024-01-06T07:34:16.406Z,99.99
2024-01-06T07:35:16.372Z,99.99
2024-01-06T07:36:16.411Z,99.99
2024-01-06T07:37:16.363Z,99.99
2024-01-06T07:38:16.364Z,99.99
2024-01-06T07:39:16.441Z,99.99
2024-01-06T07:40:16.394Z,99.99
2024-01-06T07:41:16.373Z,99.99
2024-01-06T07:42:16.439Z,99.99
2024-01-06T07:43:16.530Z,99.99
2024-01-06T07:44:16.382Z,99.99
2024-01-06T07:45:16.418Z,99.99
2024-01-06T07:46:18.275Z,99.99
2024-01-06T07:47:16.389Z,99.99
2024-01-06T07:48:16.603Z,99.99
2024-01-06T07:49:16.623Z,99.99
2024-01-06T07:50:16.409Z,99.99
2024-01-06T07:51:16.481Z,99.99
2024-01-06T07:52:16.408Z,99.99
2024-01-06T07:53:16.420Z,99.99
2024-01-06T07:54:16.442Z,99.99
2024-01-06T07:55:16.418Z,99.99
2024-01-06T07:56:16.422Z,99.99
2024-01-06T07:57:16.449Z,99.99
2024-01-06T07:58:16.428Z,99.99
2024-01-06T07:59:16.432Z,99.99
2024-01-06T08:00:16.502Z,99.99
2024-01-06T08:01:16.515Z,99.99
2024-01-06T08:02:16.439Z,99.99
2024-01-06T08:03:16.493Z,99.99
2024-01-06T08:04:16.555Z,99.99
2024-01-06T08:05:16.464Z,99.99
2024-01-06T08:06:16.561Z,99.99
2024-01-06T08:07:16.537Z,99.99
2024-01-06T08:08:16.467Z,99.99
2024-01-06T08:09:16.507Z,99.99
2024-01-06T08:10:16.469Z,99.99
2024-01-06T08:11:16.480Z,99.99
2024-01-06T08:12:16.521Z,99.99
2024-01-06T08:13:16.515Z,99.99
2024-01-06T08:14:16.483Z,99.99
2024-01-06T08:15:16.673Z,99.99
2024-01-06T08:16:16.484Z,99.99
2024-01-06T08:17:19.480Z,99.99
2024-01-06T08:18:16.642Z,99.99
2024-01-06T08:19:16.539Z,99.99
2024-01-06T08:20:16.517Z,99.99
2024-01-06T08:21:16.520Z,99.99
2024-01-06T08:22:16.518Z,99.99
2024-01-06T08:23:16.566Z,99.99
2024-01-06T08:24:16.522Z,99.99
2024-01-06T08:25:16.520Z,99.99
2024-01-06T08:26:16.569Z,99.99
2024-01-06T08:27:16.566Z,99.99
2024-01-06T08:28:16.528Z,99.99
2024-01-06T08:29:16.529Z,99.99
2024-01-06T08:30:16.711Z,99.99
2024-01-06T08:31:16.638Z,99.99
2024-01-06T08:32:16.550Z,99.99
2024-01-06T08:33:16.710Z,99.99
2024-01-06T08:34:16.711Z,99.99
2024-01-06T08:35:16.552Z,99.99
2024-01-06T08:36:16.637Z,99.99
2024-01-06T08:37:16.558Z,99.99
2024-01-06T08:38:16.566Z,99.99
2024-01-06T08:39:16.642Z,99.99
2024-01-06T08:40:16.584Z,99.99
2024-01-06T08:41:16.579Z,99.99
2024-01-06T08:42:16.606Z,99.99
2024-01-06T08:43:16.577Z,99.99
2024-01-06T08:44:16.588Z,99.99
2024-01-06T08:45:16.649Z,99.99
2024-01-06T08:46:16.592Z,99.99
2024-01-06T08:47:16.588Z,99.99
2024-01-06T08:48:17.171Z,99.99
2024-01-06T08:49:16.710Z,99.99
2024-01-06T08:50:16.606Z,99.99
2024-01-06T08:51:16.644Z,99.99
2024-01-06T08:52:16.614Z,99.99
2024-01-06T08:53:16.617Z,99.99
2024-01-06T08:54:16.658Z,99.99
2024-01-06T08:55:16.663Z,99.99
2024-01-06T08:56:16.636Z,99.99
2024-01-06T08:57:16.706Z,99.99
2024-01-06T08:58:16.636Z,99.99
2024-01-06T08:59:16.644Z,99.99
2024-01-06T09:00:16.675Z,99.99
2024-01-06T09:01:16.727Z,99.99
2024-01-06T09:02:16.647Z,99.99
2024-01-06T09:03:16.777Z,99.99
2024-01-06T09:04:16.704Z,99.99
2024-01-06T09:05:16.697Z,99.99
2024-01-06T09:06:16.731Z,99.99
2024-01-06T09:07:16.670Z,99.99
2024-01-06T09:08:16.680Z,99.99
2024-01-06T09:09:16.741Z,99.99
2024-01-06T09:10:16.679Z,99.99
2024-01-06T09:11:16.700Z,99.99
2024-01-06T09:12:16.727Z,99.99
2024-01-06T09:13:16.688Z,99.99
2024-01-06T09:14:16.693Z,99.99
2024-01-06T09:15:16.792Z,99.99
2024-01-06T09:16:16.712Z,99.99
2024-01-06T09:17:16.702Z,99.99
2024-01-06T09:18:16.867Z,99.99
2024-01-06T09:19:16.953Z,99.99
2024-01-06T09:20:16.718Z,99.99
2024-01-06T09:21:16.749Z,99.99
2024-01-06T09:22:16.744Z,99.99
2024-01-06T09:23:16.728Z,99.99
2024-01-06T09:24:16.788Z,99.99
2024-01-06T09:25:16.740Z,99.99
2024-01-06T09:26:16.744Z,99.99
2024-01-06T09:27:16.777Z,99.99
2024-01-06T09:28:16.755Z,99.99
2024-01-06T09:29:16.881Z,99.99
2024-01-06T09:30:16.818Z,99.99
2024-01-06T09:31:16.796Z,99.99
2024-01-06T09:32:16.778Z,99.99
2024-01-06T09:33:17.129Z,99.71
2024-01-06T09:34:16.941Z,98.39
2024-01-06T09:35:16.785Z,98.10
2024-01-06T09:36:16.834Z,98.86
2024-01-06T09:37:16.805Z,98.39
2024-01-06T09:38:16.805Z,97.63
2024-01-06T09:39:16.856Z,96.78
2024-01-06T09:40:16.810Z,97.16
2024-01-06T09:41:16.844Z,96.59
2024-01-06T09:42:16.835Z,96.50
2024-01-06T09:43:16.849Z,96.69
2024-01-06T09:44:17.331Z,96.59
2024-01-06T09:45:16.900Z,96.12
2024-01-06T09:46:16.847Z,95.69
2024-01-06T09:47:16.861Z,95.12
2024-01-06T09:48:17.070Z,95.03
2024-01-06T09:49:17.013Z,95.21
2024-01-06T09:50:16.857Z,93.89
2024-01-06T09:51:16.896Z,92.57
2024-01-06T09:52:16.877Z,92.76
2024-01-06T09:53:16.870Z,92.19
2024-01-06T09:54:16.903Z,91.62
2024-01-06T09:55:16.879Z,91.72
2024-01-06T09:56:16.885Z,91.72
2024-01-06T09:57:16.911Z,90.30
2024-01-06T09:58:17.049Z,91.15
2024-01-06T09:59:16.933Z,92.33
2024-01-06T10:00:16.968Z,92.61
2024-01-06T10:01:17.105Z,94.98
2024-01-06T10:02:16.938Z,96.78
2024-01-06T10:03:17.027Z,96.21
2024-01-06T10:04:20.516Z,95.17
2024-01-06T10:05:16.957Z,95.74
2024-01-06T10:06:17.082Z,97.16
2024-01-06T10:07:17.083Z,96.78
2024-01-06T10:08:16.946Z,96.12
2024-01-06T10:09:16.992Z,96.21
2024-01-06T10:10:16.960Z,95.64
2024-01-06T10:11:16.955Z,95.03
2024-01-06T10:12:17.014Z,94.84
2024-01-06T10:13:16.969Z,93.70
2024-01-06T10:14:16.980Z,93.51
2024-01-06T10:15:17.069Z,94.93
2024-01-06T10:16:17.003Z,95.59
2024-01-06T10:17:16.988Z,95.12
2024-01-06T10:18:17.129Z,95.40
2024-01-06T10:19:17.075Z,95.69
2024-01-06T10:20:17.008Z,94.74
2024-01-06T10:21:17.047Z,95.12
2024-01-06T10:22:17.020Z,94.18
2024-01-06T10:23:17.033Z,93.13
2024-01-06T10:24:17.056Z,93.23
2024-01-06T10:25:17.032Z,93.04
2024-01-06T10:26:17.058Z,92.47
2024-01-06T10:27:17.083Z,92.19
2024-01-06T10:28:17.048Z,91.34
2024-01-06T10:29:17.061Z,90.30
2024-01-06T10:30:17.213Z,90.48
2024-01-06T10:31:17.159Z,90.25
2024-01-06T10:32:17.069Z,90.06
2024-01-06T10:33:17.192Z,90.53
2024-01-06T10:34:17.310Z,90.34
2024-01-06T10:35:17.082Z,90.72
2024-01-06T10:36:17.701Z,91.29
2024-01-06T10:37:17.094Z,91.67
2024-01-06T10:38:17.098Z,92.14
2024-01-06T10:39:17.274Z,93.09
2024-01-06T10:40:17.139Z,94.79
2024-01-06T10:41:17.113Z,95.74
2024-01-06T10:42:17.232Z,96.21
2024-01-06T10:43:17.135Z,96.40
2024-01-06T10:44:17.236Z,95.64
2024-01-06T10:45:17.337Z,94.46
2024-01-06T10:46:17.318Z,92.43
2024-01-06T10:47:17.162Z,91.58
2024-01-06T10:48:17.344Z,90.72
2024-01-06T10:49:17.282Z,93.04
2024-01-06T10:50:17.170Z,99.99
2024-01-06T10:51:17.379Z,99.99
2024-01-06T10:52:17.241Z,99.99
2024-01-06T10:53:17.170Z,99.99
2024-01-06T10:54:17.253Z,99.99
2024-01-06T10:55:17.179Z,99.99
2024-01-06T10:56:17.192Z,99.99
2024-01-06T10:57:17.296Z,99.99
2024-01-06T10:58:17.198Z,99.99
2024-01-06T10:59:17.208Z,99.99
2024-01-06T11:00:17.247Z,99.99
2024-01-06T11:01:20.510Z,99.99
2024-01-06T11:02:17.223Z,99.99
2024-01-06T11:03:17.317Z,99.99
2024-01-06T11:04:17.418Z,99.99
2024-01-06T11:05:17.283Z,99.57
2024-01-06T11:06:17.248Z,97.87
2024-01-06T11:07:17.257Z,97.20
2024-01-06T11:08:17.248Z,94.93
2024-01-06T11:09:17.306Z,93.13
2024-01-06T11:10:17.338Z,93.13
2024-01-06T11:11:17.269Z,93.70
2024-01-06T11:12:17.301Z,94.37
2024-01-06T11:13:17.284Z,95.12
2024-01-06T11:14:17.284Z,95.50
2024-01-06T11:15:17.331Z,94.08
2024-01-06T11:16:17.300Z,95.12
2024-01-06T11:17:17.299Z,95.59
2024-01-06T11:18:17.420Z,96.45
2024-01-06T11:19:17.554Z,95.50
2024-01-06T11:20:17.472Z,94.84
2024-01-06T11:21:17.446Z,95.31
2024-01-06T11:22:17.330Z,95.69
2024-01-06T11:23:17.334Z,99.76
2024-01-06T11:24:17.404Z,99.99
2024-01-06T11:25:17.358Z,99.99
2024-01-06T11:26:17.405Z,99.99
2024-01-06T11:27:17.390Z,99.01
2024-01-06T11:28:17.359Z,99.99
2024-01-06T11:29:17.373Z,99.99
2024-01-06T11:30:17.589Z,99.99
2024-01-06T11:31:17.655Z,99.99
2024-01-06T11:32:17.431Z,99.05
2024-01-06T11:33:17.549Z,97.72
2024-01-06T11:34:17.650Z,99.05
2024-01-06T11:35:17.493Z,98.29
2024-01-06T11:36:17.522Z,98.06
2024-01-06T11:37:17.416Z,98.91
2024-01-06T11:38:17.411Z,98.25
2024-01-06T11:39:17.438Z,97.39
2024-01-06T11:40:17.423Z,96.35
2024-01-06T11:41:17.433Z,94.46
2024-01-06T11:42:17.498Z,92.94
2024-01-06T11:43:17.454Z,92.47
2024-01-06T11:44:17.449Z,92.85
2024-01-06T11:45:17.577Z,92.00
2024-01-06T11:46:17.482Z,91.62
2024-01-06T11:47:17.464Z,90.48
2024-01-06T11:48:17.630Z,90.15
2024-01-06T11:49:17.917Z,90.44
2024-01-06T11:50:17.474Z,93.13
2024-01-06T11:51:17.527Z,95.78
2024-01-06T11:52:17.488Z,98.63
2024-01-06T11:53:17.490Z,99.99
2024-01-06T11:54:17.518Z,99.99
2024-01-06T11:55:17.534Z,99.99
2024-01-06T11:56:17.519Z,99.99
2024-01-06T11:57:17.537Z,99.99
2024-01-06T11:58:17.521Z,99.99
2024-01-06T11:59:17.543Z,99.99
2024-01-06T12:00:17.640Z,98.96
2024-01-06T12:01:17.732Z,97.06
2024-01-06T12:02:17.542Z,95.78
2024-01-06T12:03:17.596Z,95.78
2024-01-06T12:04:17.642Z,98.06
2024-01-06T12:05:17.566Z,99.62
2024-01-06T12:06:17.723Z,99.99
2024-01-06T12:07:17.686Z,99.99
2024-01-06T12:08:17.579Z,99.99
2024-01-06T12:09:17.622Z,99.99
2024-01-06T12:10:17.589Z,99.99
2024-01-06T12:11:17.602Z,99.99
2024-01-06T12:12:17.642Z,99.99
2024-01-06T12:13:18.799Z,99.99
2024-01-06T12:14:17.614Z,99.99
2024-01-06T12:15:17.664Z,99.99
2024-01-06T12:16:17.628Z,99.99
2024-01-06T12:17:17.737Z,99.99
2024-01-06T12:18:17.774Z,99.99
2024-01-06T12:19:17.737Z,99.99
2024-01-06T12:20:17.709Z,99.99
2024-01-06T12:21:17.691Z,99.99
2024-01-06T12:22:17.753Z,98.82
2024-01-06T12:23:17.718Z,97.72
2024-01-06T12:24:17.685Z,98.34
2024-01-06T12:25:17.676Z,99.19
2024-01-06T12:26:17.686Z,99.85
2024-01-06T12:27:17.706Z,98.72
2024-01-06T12:28:17.698Z,96.64
2024-01-06T12:29:17.698Z,96.40
2024-01-06T12:30:17.898Z,99.99
2024-01-06T12:31:17.758Z,99.99
2024-01-06T12:32:17.716Z,99.90
2024-01-06T12:33:17.888Z,99.71
2024-01-06T12:34:17.807Z,98.77
2024-01-06T12:35:17.736Z,98.39
2024-01-06T12:36:24.286Z,98.86
2024-01-06T12:37:17.781Z,99.99
2024-01-06T12:38:17.746Z,99.99
2024-01-06T12:39:17.804Z,99.80
2024-01-06T12:40:17.763Z,99.05
2024-01-06T12:41:17.766Z,97.25
2024-01-06T12:42:17.815Z,94.84
2024-01-06T12:43:17.778Z,93.42
2024-01-06T12:44:17.790Z,92.57
2024-01-06T12:45:18.258Z,92.29
2024-01-06T12:46:17.795Z,92.76
2024-01-06T12:47:17.870Z,92.76
2024-01-06T12:48:18.004Z,91.91
2024-01-06T12:49:17.974Z,91.53
2024-01-06T12:50:17.813Z,90.86
2024-01-06T12:51:17.833Z,90.30
2024-01-06T12:52:17.836Z,90.20